createdAt,value
2023-04-10T00:00:57.658Z,8.42
2023-04-10T00:03:26.148Z,8.54
2023-04-10T00:05:55.046Z,8.46
2023-04-10T00:08:23.612Z,8.68
2023-04-10T00:10:53.260Z,8.49
2023-04-10T00:13:21.412Z,8.64
2023-04-10T00:15:50.248Z,8.64
2023-04-10T00:18:17.987Z,8.54
2023-04-10T00:20:46.048Z,8.57
2023-04-10T00:23:13.832Z,8.31
2023-04-10T00:25:41.594Z,8.47
2023-04-10T00:28:10.872Z,8.46
2023-04-10T00:30:38.749Z,8.38
2023-04-10T00:33:06.736Z,8.45
2023-04-10T00:35:34.691Z,8.51
2023-04-10T00:38:02.614Z,8.55
2023-04-10T00:40:30.635Z,8.36
2023-04-10T00:42:58.597Z,8.47
2023-04-10T00:45:27.954Z,8.55
2023-04-10T00:47:56.102Z,8.56
2023-04-10T00:50:24.337Z,8.54
2023-04-10T00:52:52.815Z,8.61
2023-04-10T00:55:20.679Z,8.67
2023-04-10T00:57:49.182Z,8.62
2023-04-10T01:00:18.429Z,8.55
2023-04-10T01:02:51.070Z,8.57
2023-04-10T01:05:18.931Z,8.65
2023-04-10T01:07:56.837Z,8.67
2023-04-10T01:10:30.814Z,8.60
2023-04-10T01:13:07.668Z,8.61
2023-04-10T01:15:43.552Z,8.61
2023-04-10T01:18:20.479Z,8.53
2023-04-10T01:20:48.495Z,8.61
2023-04-10T01:23:52.434Z,8.48
2023-04-10T01:26:40.722Z,8.48
2023-04-10T01:29:19.582Z,8.34
2023-04-10T01:31:53.437Z,8.34
2023-04-10T01:34:25.698Z,8.36
2023-04-10T01:36:58.300Z,8.42
2023-04-10T01:39:28.498Z,8.41
2023-04-10T01:41:59.926Z,8.39
2023-04-10T01:44:42.951Z,8.46
2023-04-10T01:47:11.224Z,8.55
2023-04-10T01:49:44.502Z,8.50
2023-04-10T01:52:14.054Z,8.69
2023-04-10T01:54:45.605Z,8.67
2023-04-10T01:57:16.935Z,8.62
2023-04-10T01:59:54.944Z,8.67
2023-04-10T02:02:22.852Z,8.64
2023-04-10T02:04:51.887Z,8.63
2023-04-10T02:07:26.618Z,8.72
2023-04-10T02:10:01.292Z,8.75
2023-04-10T02:12:32.015Z,8.70
2023-04-10T02:15:03.678Z,8.60
2023-04-10T02:17:32.696Z,8.61
2023-04-10T02:20:01.683Z,8.60
2023-04-10T02:22:30.216Z,8.57
2023-04-10T02:24:59.883Z,8.57
2023-04-10T02:27:31.602Z,8.57
2023-04-10T02:30:02.838Z,8.59
2023-04-10T02:32:33.085Z,8.61
2023-04-10T02:35:02.190Z,8.65
2023-04-10T02:37:31.207Z,8.60
2023-04-10T02:40:01.423Z,8.54
2023-04-10T02:42:34.846Z,8.57
2023-04-10T02:45:04.675Z,8.53
2023-04-10T02:47:37.976Z,8.47
2023-04-10T02:50:06.601Z,8.55
2023-04-10T02:52:37.751Z,8.45
2023-04-10T02:55:06.386Z,8.56
2023-04-10T02:57:37.614Z,8.54
2023-04-10T03:00:08.386Z,8.51
2023-04-10T03:03:06.254Z,8.39
2023-04-10T03:05:42.495Z,8.39
2023-04-10T03:08:10.317Z,8.44
2023-04-10T03:10:38.207Z,8.31
2023-04-10T03:13:06.239Z,8.25
2023-04-10T03:15:36.013Z,8.30
2023-04-10T03:18:03.821Z,8.43
2023-04-10T03:20:32.209Z,8.32
2023-04-10T03:23:00.647Z,8.35
2023-04-10T03:25:28.677Z,8.24
2023-04-10T03:27:56.673Z,8.28
2023-04-10T03:30:24.823Z,8.21
2023-04-10T03:32:54.340Z,8.32
2023-04-10T03:35:22.367Z,8.21
2023-04-10T03:37:50.390Z,8.23
2023-04-10T03:40:18.123Z,8.28
2023-04-10T03:42:46.528Z,8.24
2023-04-10T03:45:16.225Z,8.26
2023-04-10T03:47:45.447Z,8.35
2023-04-10T03:50:17.785Z,8.23
2023-04-10T03:52:54.579Z,8.24
2023-04-10T03:55:24.234Z,8.28
2023-04-10T03:57:53.093Z,8.11
2023-04-10T04:00:26.092Z,8.18
2023-04-10T04:03:05.340Z,8.15
2023-04-10T04:05:53.840Z,8.16
2023-04-10T04:08:44.869Z,8.21
2023-04-10T04:11:15.510Z,8.11
2023-04-10T04:14:02.733Z,8.05
2023-04-10T04:16:54.385Z,8.01
2023-04-10T04:19:24.870Z,7.96
2023-04-10T04:22:26.770Z,7.74
2023-04-10T04:25:16.693Z,7.77
2023-04-10T04:28:02.787Z,7.77
2023-04-10T04:30:42.434Z,7.80
2023-04-10T04:33:17.849Z,7.62
2023-04-10T04:35:57.827Z,7.62
2023-04-10T04:38:53.171Z,7.46
2023-04-10T04:41:39.729Z,7.44
2023-04-10T04:44:16.824Z,7.46
2023-04-10T04:46:58.530Z,7.52
2023-04-10T04:49:29.070Z,7.31
2023-04-10T04:52:17.285Z,7.38
2023-04-10T04:54:50.857Z,7.38
2023-04-10T04:57:54.794Z,7.41
2023-04-10T05:00:50.278Z,7.48
2023-04-10T05:03:47.660Z,7.50
2023-04-10T05:06:36.376Z,7.53
2023-04-10T05:09:23.063Z,7.52
2023-04-10T05:12:06.636Z,7.64
2023-04-10T05:14:53.374Z,7.62
2023-04-10T05:17:41.532Z,7.70
2023-04-10T05:20:19.040Z,7.81
2023-04-10T05:23:02.505Z,7.89
2023-04-10T05:26:02.594Z,8.03
2023-04-10T05:28:53.345Z,8.04
2023-04-10T05:31:33.956Z,7.99
2023-04-10T05:34:22.060Z,8.07
2023-04-10T05:37:22.340Z,8.21
2023-04-10T05:40:13.301Z,8.21
2023-04-10T05:42:57.631Z,8.48
2023-04-10T05:45:47.205Z,8.50
2023-04-10T05:48:30.244Z,8.57
2023-04-10T05:51:16.438Z,8.78
2023-04-10T05:54:06.480Z,9.07
2023-04-10T05:56:53.050Z,9.37
2023-04-10T05:59:47.110Z,9.32
2023-04-10T06:02:25.944Z,9.69
2023-04-10T06:04:53.988Z,9.69
2023-04-10T06:07:22.300Z,9.94
2023-04-10T06:09:50.058Z,10.02
2023-04-10T06:12:17.894Z,9.99
2023-04-10T06:14:45.928Z,10.17
2023-04-10T06:17:13.730Z,10.36
2023-04-10T06:19:43.604Z,10.31
2023-04-10T06:22:11.315Z,10.23
2023-04-10T06:24:39.219Z,10.35
2023-04-10T06:27:07.073Z,10.27
2023-04-10T06:29:36.000Z,10.34
2023-04-10T06:32:04.010Z,10.67
2023-04-10T06:34:36.879Z,10.65
2023-04-10T06:37:09.194Z,10.76
2023-04-10T06:39:39.397Z,10.85
2023-04-10T06:42:07.729Z,11.02
2023-04-10T06:44:56.027Z,11.15
2023-04-10T06:47:23.899Z,11.22
2023-04-10T06:49:52.038Z,11.35
2023-04-10T06:52:21.528Z,11.34
2023-04-10T06:54:49.410Z,11.08
2023-04-10T06:57:17.444Z,11.30
2023-04-10T06:59:45.784Z,11.63
2023-04-10T07:02:13.609Z,11.31
2023-04-10T07:04:41.679Z,11.42
2023-04-10T07:07:12.478Z,11.42
2023-04-10T07:09:41.749Z,11.44
2023-04-10T07:12:09.790Z,11.60
2023-04-10T07:14:37.580Z,11.67
2023-04-10T07:17:05.590Z,12.05
2023-04-10T07:19:33.526Z,12.57
2023-04-10T07:22:01.953Z,12.02
2023-04-10T07:24:29.813Z,11.87
2023-04-10T07:27:00.680Z,11.78
2023-04-10T07:29:28.717Z,11.80
2023-04-10T07:31:56.772Z,12.01
2023-04-10T07:34:25.720Z,12.08
2023-04-10T07:36:53.584Z,11.94
2023-04-10T07:39:21.422Z,11.86
2023-04-10T07:41:49.209Z,11.79
2023-04-10T07:44:18.813Z,11.74
2023-04-10T07:46:47.658Z,11.87
2023-04-10T07:49:15.540Z,11.83
2023-04-10T07:51:43.289Z,11.83
2023-04-10T07:54:11.144Z,11.95
2023-04-10T07:56:39.047Z,12.32
2023-04-10T07:59:07.183Z,12.45
2023-04-10T08:01:36.515Z,12.30
2023-04-10T08:04:06.147Z,12.67
2023-04-10T08:06:34.111Z,12.65
2023-04-10T08:09:02.534Z,12.59
2023-04-10T08:11:32.132Z,12.74
2023-04-10T08:14:02.570Z,12.89
2023-04-10T08:16:32.730Z,12.88
2023-04-10T08:19:02.755Z,12.85
2023-04-10T08:21:32.174Z,12.88
2023-04-10T08:24:01.605Z,13.01
2023-04-10T08:26:30.399Z,13.40
2023-04-10T08:29:00.830Z,13.37
2023-04-10T08:31:30.070Z,13.55
2023-04-10T08:33:59.175Z,13.62
2023-04-10T08:36:28.657Z,13.50
2023-04-10T08:38:56.440Z,13.41
2023-04-10T08:41:24.582Z,13.32
2023-04-10T08:43:52.517Z,13.61
2023-04-10T08:46:20.645Z,13.65
2023-04-10T08:48:54.774Z,13.66
2023-04-10T08:51:26.792Z,13.46
2023-04-10T08:54:02.458Z,13.59
2023-04-10T08:56:33.910Z,13.40
2023-04-10T08:59:03.431Z,13.70
2023-04-10T09:01:32.266Z,13.59
2023-04-10T09:04:00.783Z,13.60
2023-04-10T09:06:29.533Z,13.57
2023-04-10T09:12:03.980Z,13.75
2023-04-10T09:14:33.219Z,14.13
2023-04-10T09:17:18.613Z,14.42
2023-04-10T09:19:48.482Z,14.74
2023-04-10T09:22:17.270Z,14.82
2023-04-10T09:24:48.448Z,14.75
2023-04-10T09:27:35.182Z,14.79
2023-04-10T09:30:03.566Z,14.87
2023-04-10T09:32:39.624Z,15.11
2023-04-10T09:35:08.795Z,15.25
2023-04-10T09:37:37.348Z,15.01
2023-04-10T09:40:20.817Z,15.31
2023-04-10T09:42:48.581Z,15.04
2023-04-10T09:45:19.870Z,15.07
2023-04-10T09:48:02.512Z,15.17
2023-04-10T09:50:38.854Z,15.27
2023-04-10T09:53:08.074Z,15.05
2023-04-10T09:55:38.120Z,14.96
2023-04-10T09:58:07.330Z,15.13
2023-04-10T10:00:42.025Z,15.48
2023-04-10T10:03:11.876Z,15.47
2023-04-10T10:05:42.925Z,15.03
2023-04-10T10:08:12.575Z,15.23
2023-04-10T10:10:47.027Z,15.33
2023-04-10T10:13:19.016Z,15.64
2023-04-10T10:15:52.897Z,15.40
2023-04-10T10:18:28.487Z,15.85
2023-04-10T10:20:56.804Z,15.86
2023-04-10T10:23:25.629Z,16.11
2023-04-10T10:25:56.061Z,15.89
2023-04-10T10:28:25.319Z,15.65
2023-04-10T10:30:54.744Z,15.87
2023-04-10T10:33:23.254Z,16.11
2023-04-10T10:35:51.496Z,16.03
2023-04-10T10:38:19.968Z,16.02
2023-04-10T10:40:55.889Z,15.74
2023-04-10T10:43:29.008Z,15.90
2023-04-10T10:46:03.691Z,15.88
2023-04-10T10:48:31.590Z,15.84
2023-04-10T10:51:01.719Z,15.90
2023-04-10T10:53:34.733Z,15.92
2023-04-10T10:56:41.273Z,15.92
2023-04-10T10:59:14.069Z,15.95
2023-04-10T11:02:15.686Z,16.08
2023-04-10T11:04:44.308Z,16.01
2023-04-10T11:07:12.097Z,16.06
2023-04-10T11:09:53.538Z,16.00
2023-04-10T11:12:24.118Z,16.19
2023-04-10T11:15:01.023Z,16.06
2023-04-10T11:17:47.474Z,16.29
2023-04-10T11:20:15.640Z,16.46
2023-04-10T11:23:09.255Z,16.48
2023-04-10T11:25:58.141Z,16.31
2023-04-10T11:28:36.353Z,16.64
2023-04-10T11:31:22.774Z,16.57
2023-04-10T11:33:52.148Z,16.61
2023-04-10T11:36:20.101Z,16.61
2023-04-10T11:38:58.974Z,16.43
2023-04-10T11:41:31.925Z,16.40
2023-04-10T11:44:00.636Z,16.38
2023-04-10T11:46:30.625Z,16.51
2023-04-10T11:49:01.203Z,16.54
2023-04-10T11:51:29.488Z,16.75
2023-04-10T11:54:09.120Z,16.75
2023-04-10T11:56:37.694Z,16.83
2023-04-10T11:59:09.630Z,16.70
2023-04-10T12:01:42.462Z,17.00
2023-04-10T12:04:18.202Z,17.01
2023-04-10T12:06:47.218Z,17.20
2023-04-10T12:09:17.103Z,17.11
2023-04-10T12:11:51.565Z,16.96
2023-04-10T12:14:19.700Z,16.84
2023-04-10T12:16:49.763Z,16.90
2023-04-10T12:19:18.176Z,16.81
2023-04-10T12:21:47.912Z,16.88
2023-04-10T12:24:42.099Z,16.85
2023-04-10T12:27:10.035Z,16.83
2023-04-10T12:29:37.867Z,16.94
2023-04-10T12:32:10.609Z,16.99
2023-04-10T12:34:38.475Z,16.99
2023-04-10T12:37:06.964Z,16.98
2023-04-10T12:39:34.690Z,16.91
2023-04-10T12:42:15.988Z,16.78
2023-04-10T12:44:54.465Z,17.07
2023-04-10T12:47:24.496Z,17.26
2023-04-10T12:50:08.013Z,17.43
2023-04-10T12:52:36.958Z,17.24
2023-04-10T12:55:16.043Z,17.35
2023-04-10T12:57:45.902Z,17.21
2023-04-10T13:00:16.134Z,17.11
2023-04-10T13:02:46.457Z,17.33
2023-04-10T13:05:14.887Z,17.21
2023-04-10T13:07:42.863Z,17.29
2023-04-10T13:10:11.352Z,17.04
2023-04-10T13:12:40.988Z,17.10
2023-04-10T13:15:10.812Z,17.34
2023-04-10T13:17:38.799Z,17.35
2023-04-10T13:20:10.313Z,17.22
2023-04-10T13:22:41.151Z,16.83
2023-04-10T13:25:09.812Z,16.91
2023-04-10T13:27:37.659Z,17.03
2023-04-10T13:30:06.124Z,16.96
2023-04-10T13:32:33.995Z,16.98
2023-04-10T13:35:01.950Z,16.91
2023-04-10T13:37:31.287Z,17.16
2023-04-10T13:39:59.366Z,17.08
2023-04-10T13:42:27.209Z,17.01
2023-04-10T13:44:55.092Z,16.93
2023-04-10T13:47:22.876Z,17.14
2023-04-10T13:49:50.763Z,17.02
2023-04-10T13:52:18.537Z,17.08
2023-04-10T13:54:47.845Z,17.25
2023-04-10T13:57:15.715Z,17.11
2023-04-10T13:59:43.634Z,17.32
2023-04-10T14:02:11.475Z,17.38
2023-04-10T14:04:39.773Z,17.32
2023-04-10T14:07:08.068Z,17.27
2023-04-10T14:09:35.858Z,17.36
2023-04-10T14:12:05.306Z,17.50
2023-04-10T14:14:33.075Z,17.41
2023-04-10T14:17:00.926Z,17.33
2023-04-10T14:19:28.785Z,17.39
2023-04-10T14:21:56.609Z,17.56
2023-04-10T14:24:24.496Z,17.40
2023-04-10T14:26:53.874Z,17.57
2023-04-10T14:29:33.230Z,17.77
2023-04-10T14:32:04.212Z,17.76
2023-04-10T14:34:32.072Z,17.86
2023-04-10T14:36:59.964Z,17.89
2023-04-10T14:39:27.846Z,18.00
2023-04-10T14:41:55.694Z,17.78
2023-04-10T14:44:25.309Z,17.83
2023-04-10T14:46:53.359Z,17.81
2023-04-10T14:49:21.170Z,17.79
2023-04-10T14:51:50.271Z,17.69
2023-04-10T14:54:21.893Z,17.56
2023-04-10T14:56:50.182Z,17.49
2023-04-10T14:59:18.812Z,17.53
2023-04-10T15:01:48.202Z,17.36
2023-04-10T15:04:16.370Z,17.37
2023-04-10T15:06:44.178Z,17.22
2023-04-10T15:09:12.151Z,17.29
2023-04-10T15:11:39.855Z,17.39
2023-04-10T15:14:08.085Z,17.49
2023-04-10T15:16:36.024Z,17.26
2023-04-10T15:19:05.413Z,17.25
2023-04-10T15:21:33.318Z,17.25
2023-04-10T15:24:01.526Z,17.28
2023-04-10T15:26:29.398Z,17.27
2023-04-10T15:28:57.431Z,17.28
2023-04-10T15:31:25.364Z,17.23
2023-04-10T15:33:54.080Z,17.18
2023-04-10T15:36:23.598Z,17.08
2023-04-10T15:38:51.357Z,17.05
2023-04-10T15:41:19.133Z,17.08
2023-04-10T15:43:47.033Z,17.06
2023-04-10T15:46:17.128Z,16.99
2023-04-10T15:48:45.975Z,17.01
2023-04-10T15:51:13.874Z,16.98
2023-04-10T15:53:43.109Z,17.01
2023-04-10T15:56:11.002Z,17.03
2023-04-10T15:58:38.810Z,16.99
2023-04-10T16:01:07.303Z,16.98
2023-04-10T16:03:35.430Z,17.20
2023-04-10T16:06:03.350Z,17.12
2023-04-10T16:08:31.190Z,17.05
2023-04-10T16:11:01.096Z,16.94
2023-04-10T16:13:28.903Z,16.99
2023-04-10T16:15:56.772Z,16.97
2023-04-10T16:18:24.558Z,16.81
2023-04-10T16:20:52.440Z,16.93
2023-04-10T16:23:20.406Z,16.71
2023-04-10T16:25:48.462Z,16.67
2023-04-10T16:28:17.689Z,16.54
2023-04-10T16:30:45.480Z,16.47
2023-04-10T16:33:13.374Z,16.19
2023-04-10T16:35:41.298Z,15.85
2023-04-10T16:38:09.087Z,15.59
2023-04-10T16:40:36.854Z,15.19
2023-04-10T16:43:04.822Z,14.99
2023-04-10T16:45:34.217Z,14.66
2023-04-10T16:48:02.086Z,14.56
2023-04-10T16:50:29.991Z,14.46
2023-04-10T16:52:59.029Z,14.32
2023-04-10T16:55:26.934Z,14.40
2023-04-10T16:57:54.753Z,14.36
2023-04-10T17:00:22.656Z,14.12
2023-04-10T17:02:51.893Z,14.22
2023-04-10T17:05:19.822Z,14.13
2023-04-10T17:07:48.126Z,14.18
2023-04-10T17:10:15.860Z,13.79
2023-04-10T17:12:44.720Z,13.90
2023-04-10T17:15:13.425Z,13.79
2023-04-10T17:17:41.419Z,13.70
2023-04-10T17:20:11.578Z,13.51
2023-04-10T17:22:40.642Z,13.62
2023-04-10T17:25:09.463Z,13.66
2023-04-10T17:27:39.796Z,13.56
2023-04-10T17:30:12.588Z,13.51
2023-04-10T17:32:41.581Z,13.45
2023-04-10T17:35:10.921Z,13.43
2023-04-10T17:37:41.144Z,13.39
2023-04-10T17:40:12.011Z,13.48
2023-04-10T17:42:40.055Z,13.55
2023-04-10T17:45:08.846Z,13.52
2023-04-10T17:47:37.185Z,13.52
2023-04-10T17:50:05.943Z,13.59
2023-04-10T17:52:35.478Z,13.63
2023-04-10T17:55:03.289Z,13.63
2023-04-10T17:57:31.048Z,13.58
2023-04-10T17:59:58.986Z,13.57
2023-04-10T18:02:26.906Z,13.61
2023-04-10T18:04:55.756Z,13.41
2023-04-10T18:07:23.933Z,13.45
2023-04-10T18:09:53.510Z,13.32
2023-04-10T18:12:21.534Z,13.26
2023-04-10T18:14:49.399Z,13.16
2023-04-10T18:17:17.727Z,12.94
2023-04-10T18:19:45.716Z,12.71
2023-04-10T18:22:13.698Z,12.80
2023-04-10T18:24:41.408Z,12.73
2023-04-10T18:27:10.637Z,12.76
2023-04-10T18:29:38.492Z,12.63
2023-04-10T18:32:07.641Z,12.61
2023-04-10T18:34:35.914Z,12.60
2023-04-10T18:37:03.807Z,12.80
2023-04-10T18:39:32.741Z,12.76
2023-04-10T18:42:03.669Z,12.69
2023-04-10T18:44:34.523Z,12.51
2023-04-10T18:47:04.612Z,12.51
2023-04-10T18:49:32.671Z,12.69
2023-04-10T18:52:00.410Z,12.26
2023-04-10T18:54:28.235Z,12.28
2023-04-10T18:56:56.592Z,12.40
2023-04-10T18:59:24.502Z,12.38
2023-04-10T19:01:54.113Z,12.31
2023-04-10T19:04:22.075Z,12.33
2023-04-10T19:06:50.044Z,12.55
2023-04-10T19:09:18.525Z,12.58
2023-04-10T19:11:46.539Z,12.67
2023-04-10T19:14:14.453Z,12.60
2023-04-10T19:16:42.237Z,12.41
2023-04-10T19:19:11.317Z,12.07
2023-04-10T19:21:39.101Z,12.12
2023-04-10T19:24:07.816Z,11.91
2023-04-10T19:26:35.888Z,11.90
2023-04-10T19:29:04.054Z,11.80
2023-04-10T19:31:32.652Z,11.83
2023-04-10T19:34:03.170Z,11.68
2023-04-10T19:36:32.482Z,11.70
2023-04-10T19:39:00.456Z,11.66
2023-04-10T19:41:28.303Z,11.70
2023-04-10T19:43:56.462Z,11.55
2023-04-10T19:46:24.678Z,11.61
2023-04-10T19:48:54.893Z,11.74
2023-04-10T19:51:22.856Z,11.61
2023-04-10T19:53:52.120Z,11.53
2023-04-10T19:56:20.412Z,11.54
2023-04-10T19:58:48.389Z,11.61
2023-04-10T20:01:16.378Z,11.61
2023-04-10T20:03:44.686Z,11.64
2023-04-10T20:06:13.009Z,11.58
2023-04-10T20:08:41.311Z,11.49
2023-04-10T20:11:10.596Z,11.33
2023-04-10T20:13:39.216Z,11.32
2023-04-10T20:16:08.751Z,11.30
2023-04-10T20:18:37.892Z,11.34
2023-04-10T20:21:07.990Z,11.13
2023-04-10T20:23:36.309Z,11.12
2023-04-10T20:26:04.195Z,11.32
2023-04-10T20:28:33.550Z,11.25
2023-04-10T20:31:02.209Z,11.31
2023-04-10T20:33:30.158Z,11.28
2023-04-10T20:35:58.434Z,11.36
2023-04-10T20:38:26.194Z,11.29
2023-04-10T20:40:54.367Z,11.22
2023-04-10T20:43:22.539Z,11.21
2023-04-10T20:45:52.107Z,11.13
2023-04-10T20:48:19.986Z,11.03
2023-04-10T20:50:49.692Z,10.92
2023-04-10T20:53:17.614Z,10.87
2023-04-10T20:55:45.670Z,10.91
2023-04-10T20:58:13.983Z,10.82
2023-04-10T21:00:41.914Z,10.85
2023-04-10T21:03:11.777Z,10.76
2023-04-10T21:05:41.546Z,10.71
2023-04-10T21:08:09.744Z,10.70
2023-04-10T21:10:43.812Z,10.57
2023-04-10T21:13:13.198Z,10.45
2023-04-10T21:15:41.201Z,10.27
2023-04-10T21:18:09.232Z,10.46
2023-04-10T21:20:38.425Z,10.50
2023-04-10T21:23:06.181Z,10.49
2023-04-10T21:25:34.599Z,10.39
2023-04-10T21:28:02.823Z,10.40
2023-04-10T21:30:30.788Z,10.44
2023-04-10T21:32:58.706Z,10.30
2023-04-10T21:35:27.153Z,10.31
2023-04-10T21:38:02.024Z,10.43
2023-04-10T21:40:34.074Z,10.13
2023-04-10T21:43:02.378Z,10.18
2023-04-10T21:45:30.277Z,10.27
2023-04-10T21:47:59.769Z,10.35
2023-04-10T21:50:27.665Z,10.38
2023-04-10T21:52:56.811Z,10.17
2023-04-10T21:55:24.479Z,10.11
2023-04-10T21:57:52.332Z,10.00
2023-04-10T22:00:22.552Z,10.11
2023-04-10T22:02:51.277Z,10.08
2023-04-10T22:05:19.119Z,10.01
2023-04-10T22:07:46.816Z,10.06
2023-04-10T22:10:16.558Z,10.10
2023-04-10T22:12:45.945Z,10.02
2023-04-10T22:15:15.774Z,10.23
2023-04-10T22:17:43.598Z,10.09
2023-04-10T22:20:11.968Z,9.97
2023-04-10T22:22:39.900Z,9.93
2023-04-10T22:25:08.264Z,10.18
2023-04-10T22:27:37.565Z,9.91
2023-04-10T22:30:06.229Z,10.11
2023-04-10T22:32:34.205Z,9.85
2023-04-10T22:35:02.096Z,9.93
2023-04-10T22:37:29.880Z,9.73
2023-04-10T22:39:58.061Z,9.87
2023-04-10T22:42:26.262Z,9.80
2023-04-10T22:44:55.823Z,9.88
2023-04-10T22:47:23.496Z,9.88
2023-04-10T22:49:51.261Z,9.81
2023-04-10T22:52:19.011Z,9.86
2023-04-10T22:54:46.849Z,9.79
2023-04-10T22:57:14.606Z,9.92
2023-04-10T22:59:42.776Z,9.85
2023-04-10T23:02:12.289Z,9.68
2023-04-10T23:04:40.213Z,9.82
2023-04-10T23:07:08.048Z,9.91
2023-04-10T23:09:35.898Z,9.81
2023-04-10T23:12:03.626Z,9.87
2023-04-10T23:14:31.322Z,9.84
2023-04-10T23:16:59.076Z,9.73
2023-04-10T23:19:28.354Z,9.77
2023-04-10T23:21:56.132Z,9.92
2023-04-10T23:24:23.915Z,9.91
2023-04-10T23:26:51.866Z,9.85
2023-04-10T23:29:19.920Z,9.76
2023-04-10T23:31:48.122Z,9.78
2023-04-10T23:34:16.086Z,9.70
2023-04-10T23:36:45.312Z,9.58
2023-04-10T23:39:13.697Z,9.62
2023-04-10T23:41:41.416Z,9.70
2023-04-10T23:44:09.207Z,9.84
2023-04-10T23:46:37.038Z,9.87
2023-04-10T23:49:04.796Z,9.84
2023-04-10T23:51:32.908Z,9.84
2023-04-10T23:54:02.156Z,9.82
2023-04-10T23:56:31.008Z,9.95
2023-04-10T23:58:59.149Z,9.90
